<?xml version="1.0" encoding="UTF-8" standalone="no" ?>
<gpx xmlns="http://www.topografix.com/GPX/1/1" xmlns:xsi="http://www.w3.org/2001/XMLSchema-instance" xsi:schemaLocation="http://www.topografix.com/GPX/1/1 http://www.topografix.com/GPX/1/1/gpx.xsd" version="1.1" creator="VisuGPX - https://www.visugpx.com">
  <metadata>
    <name>Tour de Soissons - Trail 38K</name>
  </metadata>
  <trk>
    <name><![CDATA[Tour de Soissons - Trail 38K]]></name>
    <trkseg>
      <trkpt lat="49.39242" lon="3.34188">
        <ele>42.66335096872</ele>
        <time>2021-04-05T10:16:59.000Z</time>
      </trkpt>
      <trkpt lat="49.39247" lon="3.34173">
        <ele>42.88686278601</ele>
        <time>2021-04-05T10:16:59.004Z</time>
      </trkpt>
      <trkpt lat="49.39261" lon="3.34126">
        <ele>43.25013693776</ele>
        <time>2021-04-05T10:16:59.019Z</time>
      </trkpt>
      <trkpt lat="49.39291" lon="3.34007">
        <ele>43.31141063654</ele>
        <time>2021-04-05T10:16:59.062Z</time>
      </trkpt>
      <trkpt lat="49.39303" lon="3.3395">
        <ele>43.51188406511</ele>
        <time>2021-04-05T10:16:59.118Z</time>
      </trkpt>
      <trkpt lat="49.39304" lon="3.3385">
        <ele>43.6719974266</ele>
        <time>2021-04-05T10:16:59.195Z</time>
      </trkpt>
      <trkpt lat="49.39309" lon="3.3384">
        <ele>43.7447354873</ele>
        <time>2021-04-05T10:16:59.275Z</time>
      </trkpt>
      <trkpt lat="49.39307" lon="3.33825">
        <ele>43.75269019148</ele>
        <time>2021-04-05T10:16:59.359Z</time>
      </trkpt>
      <trkpt lat="49.39303" lon="3.33818">
        <ele>43.78099024465</ele>
        <time>2021-04-05T10:16:59.445Z</time>
      </trkpt>
      <trkpt lat="49.39294" lon="3.33779">
        <ele>43.8002873933</ele>
        <time>2021-04-05T10:16:59.540Z</time>
      </trkpt>
      <trkpt lat="49.39284" lon="3.3362">
        <ele>44.0028652213</ele>
        <time>2021-04-05T10:16:59.670Z</time>
      </trkpt>
      <trkpt lat="49.39279" lon="3.33502">
        <ele>43.72568073919</ele>
        <time>2021-04-05T10:16:59.825Z</time>
      </trkpt>
      <trkpt lat="49.39281" lon="3.33409">
        <ele>43.72683466799</ele>
        <time>2021-04-05T10:17:00.001Z</time>
      </trkpt>
      <trkpt lat="49.39286" lon="3.33365">
        <ele>43.72484463524</ele>
        <time>2021-04-05T10:17:00.186Z</time>
      </trkpt>
      <trkpt lat="49.39286" lon="3.3332">
        <ele>43.72119588006</ele>
        <time>2021-04-05T10:17:00.381Z</time>
      </trkpt>
      <trkpt lat="49.39295" lon="3.33322">
        <ele>43.80287638408</ele>
        <time>2021-04-05T10:17:00.579Z</time>
      </trkpt>
      <trkpt lat="49.39301" lon="3.33315">
        <ele>43.93132287701</ele>
        <time>2021-04-05T10:17:00.780Z</time>
      </trkpt>
      <trkpt lat="49.39318" lon="3.33303">
        <ele>44.16649576419</ele>
        <time>2021-04-05T10:17:00.987Z</time>
      </trkpt>
      <trkpt lat="49.39357" lon="3.33298">
        <ele>44.42758804351</ele>
        <time>2021-04-05T10:17:01.207Z</time>
      </trkpt>
      <trkpt lat="49.39574" lon="3.33307">
        <ele>44.79736329253</ele>
        <time>2021-04-05T10:17:01.500Z</time>
      </trkpt>
      <trkpt lat="49.39574" lon="3.33307">
        <ele>45.03664848053</ele>
        <time>2021-04-05T10:17:01.793Z</time>
      </trkpt>
      <trkpt lat="49.39719" lon="3.33315">
        <ele>45.28156786148</ele>
        <time>2021-04-05T10:17:02.134Z</time>
      </trkpt>
      <trkpt lat="49.39739" lon="3.33314">
        <ele>45.48669686941</ele>
        <time>2021-04-05T10:17:02.481Z</time>
      </trkpt>
      <trkpt lat="49.3974" lon="3.333">
        <ele>45.64075608323</ele>
        <time>2021-04-05T10:17:02.831Z</time>
      </trkpt>
      <trkpt lat="49.39759" lon="3.33268">
        <ele>45.7670675551</ele>
        <time>2021-04-05T10:17:03.191Z</time>
      </trkpt>
      <trkpt lat="49.3977" lon="3.33262">
        <ele>45.80141752981</ele>
        <time>2021-04-05T10:17:03.555Z</time>
      </trkpt>
      <trkpt lat="49.39824" lon="3.33283">
        <ele>45.75977564261</ele>
        <time>2021-04-05T10:17:03.938Z</time>
      </trkpt>
      <trkpt lat="49.39847" lon="3.33268">
        <ele>45.78646778335</ele>
        <time>2021-04-05T10:17:04.329Z</time>
      </trkpt>
      <trkpt lat="49.39857" lon="3.33228">
        <ele>45.48043897466</ele>
        <time>2021-04-05T10:17:04.729Z</time>
      </trkpt>
      <trkpt lat="49.39846" lon="3.33173">
        <ele>45.25048496227</ele>
        <time>2021-04-05T10:17:05.141Z</time>
      </trkpt>
      <trkpt lat="49.39807" lon="3.3297">
        <ele>45.32264192371</ele>
        <time>2021-04-05T10:17:05.599Z</time>
      </trkpt>
      <trkpt lat="49.39807" lon="3.3297">
        <ele>45.13629503588</ele>
        <time>2021-04-05T10:17:06.057Z</time>
      </trkpt>
      <trkpt lat="49.39792" lon="3.32791">
        <ele>44.98742812803</ele>
        <time>2021-04-05T10:17:06.555Z</time>
      </trkpt>
      <trkpt lat="49.39794" lon="3.32769">
        <ele>44.50565635812</ele>
        <time>2021-04-05T10:17:07.058Z</time>
      </trkpt>
      <trkpt lat="49.39787" lon="3.32707">
        <ele>44.0288197326</ele>
        <time>2021-04-05T10:17:07.574Z</time>
      </trkpt>
      <trkpt lat="49.39788" lon="3.32704">
        <ele>43.86930694996</ele>
        <time>2021-04-05T10:17:08.091Z</time>
      </trkpt>
      <trkpt lat="49.39788" lon="3.32704">
        <ele>43.79817276559</ele>
        <time>2021-04-05T10:17:08.608Z</time>
      </trkpt>
      <trkpt lat="49.39785" lon="3.32686">
        <ele>43.80354773721</ele>
        <time>2021-04-05T10:17:09.129Z</time>
      </trkpt>
      <trkpt lat="49.39843" lon="3.3255">
        <ele>43.97880349373</ele>
        <time>2021-04-05T10:17:09.686Z</time>
      </trkpt>
      <trkpt lat="49.39845" lon="3.32543">
        <ele>44.29038152722</ele>
        <time>2021-04-05T10:17:10.244Z</time>
      </trkpt>
      <trkpt lat="49.39864" lon="3.32479">
        <ele>44.86623375092</ele>
        <time>2021-04-05T10:17:10.818Z</time>
      </trkpt>
      <trkpt lat="49.39864" lon="3.32479">
        <ele>45.45377436412</ele>
        <time>2021-04-05T10:17:11.392Z</time>
      </trkpt>
      <trkpt lat="49.3988" lon="3.32423">
        <ele>46.26065577881</ele>
        <time>2021-04-05T10:17:11.979Z</time>
      </trkpt>
      <trkpt lat="49.39888" lon="3.32418">
        <ele>47.13211956665</ele>
        <time>2021-04-05T10:17:12.569Z</time>
      </trkpt>
      <trkpt lat="49.39889" lon="3.32406">
        <ele>48.10197540102</ele>
        <time>2021-04-05T10:17:13.161Z</time>
      </trkpt>
      <trkpt lat="49.39897" lon="3.32388">
        <ele>49.22809845316</ele>
        <time>2021-04-05T10:17:13.758Z</time>
      </trkpt>
      <trkpt lat="49.39899" lon="3.32333">
        <ele>50.5131141311</ele>
        <time>2021-04-05T10:17:14.367Z</time>
      </trkpt>
      <trkpt lat="49.39933" lon="3.32235">
        <ele>52.250563331</ele>
        <time>2021-04-05T10:17:15.000Z</time>
      </trkpt>
      <trkpt lat="49.39936" lon="3.32059">
        <ele>54.38702433672</ele>
        <time>2021-04-05T10:17:15.672Z</time>
      </trkpt>
      <trkpt lat="49.39936" lon="3.32059">
        <ele>55.52329994578</ele>
        <time>2021-04-05T10:17:16.344Z</time>
      </trkpt>
      <trkpt lat="49.39938" lon="3.31944">
        <ele>56.58378841848</ele>
        <time>2021-04-05T10:17:17.041Z</time>
      </trkpt>
      <trkpt lat="49.39945" lon="3.31873">
        <ele>57.75610080931</ele>
        <time>2021-04-05T10:17:17.753Z</time>
      </trkpt>
      <trkpt lat="49.39961" lon="3.31837">
        <ele>58.73258316178</ele>
        <time>2021-04-05T10:17:18.475Z</time>
      </trkpt>
      <trkpt lat="49.39961" lon="3.31837">
        <ele>59.46335057382</ele>
        <time>2021-04-05T10:17:19.197Z</time>
      </trkpt>
      <trkpt lat="49.39945" lon="3.31873">
        <ele>57.75610080931</ele>
        <time>2021-04-05T10:17:19.928Z</time>
      </trkpt>
      <trkpt lat="49.39938" lon="3.31944">
        <ele>60.54575960621</ele>
        <time>2021-04-05T10:17:20.675Z</time>
      </trkpt>
      <trkpt lat="49.39899" lon="3.31921">
        <ele>61.37368570475</ele>
        <time>2021-04-05T10:17:21.435Z</time>
      </trkpt>
      <trkpt lat="49.39868" lon="3.31841">
        <ele>62.59233628677</ele>
        <time>2021-04-05T10:17:22.216Z</time>
      </trkpt>
      <trkpt lat="49.3989" lon="3.31788">
        <ele>64.67330801346</ele>
        <time>2021-04-05T10:17:23.010Z</time>
      </trkpt>
      <trkpt lat="49.39905" lon="3.31751">
        <ele>66.86711405814</ele>
        <time>2021-04-05T10:17:23.814Z</time>
      </trkpt>
      <trkpt lat="49.39922" lon="3.31769">
        <ele>69.51181426839</ele>
        <time>2021-04-05T10:17:24.625Z</time>
      </trkpt>
      <trkpt lat="49.39932" lon="3.31769">
        <ele>72.56241842841</ele>
        <time>2021-04-05T10:17:25.439Z</time>
      </trkpt>
      <trkpt lat="49.39949" lon="3.31746">
        <ele>76.18654767561</ele>
        <time>2021-04-05T10:17:26.261Z</time>
      </trkpt>
      <trkpt lat="49.39961" lon="3.31706">
        <ele>80.30597887751</ele>
        <time>2021-04-05T10:17:27.092Z</time>
      </trkpt>
      <trkpt lat="49.39968" lon="3.31613">
        <ele>85.16504372855</ele>
        <time>2021-04-05T10:17:27.944Z</time>
      </trkpt>
      <trkpt lat="49.39966" lon="3.31568">
        <ele>90.6408151998</ele>
        <time>2021-04-05T10:17:28.805Z</time>
      </trkpt>
      <trkpt lat="49.39955" lon="3.31535">
        <ele>96.46618339584</ele>
        <time>2021-04-05T10:17:29.674Z</time>
      </trkpt>
      <trkpt lat="49.39926" lon="3.31464">
        <ele>102.98726511371</ele>
        <time>2021-04-05T10:17:30.562Z</time>
      </trkpt>
      <trkpt lat="49.39945" lon="3.31355">
        <ele>109.75828712691</ele>
        <time>2021-04-05T10:17:31.474Z</time>
      </trkpt>
      <trkpt lat="49.39945" lon="3.31355">
        <ele>114.51242833854</ele>
        <time>2021-04-05T10:17:32.386Z</time>
      </trkpt>
      <trkpt lat="49.39946" lon="3.31353">
        <ele>118.90819552737</ele>
        <time>2021-04-05T10:17:33.299Z</time>
      </trkpt>
      <trkpt lat="49.39936" lon="3.31338">
        <ele>122.99761521801</ele>
        <time>2021-04-05T10:17:34.216Z</time>
      </trkpt>
      <trkpt lat="49.39905" lon="3.31318">
        <ele>126.22509176135</ele>
        <time>2021-04-05T10:17:35.145Z</time>
      </trkpt>
      <trkpt lat="49.39893" lon="3.31283">
        <ele>129.27528874457</ele>
        <time>2021-04-05T10:17:36.082Z</time>
      </trkpt>
      <trkpt lat="49.39864" lon="3.31118">
        <ele>131.81649048759</ele>
        <time>2021-04-05T10:17:37.056Z</time>
      </trkpt>
      <trkpt lat="49.39858" lon="3.31045">
        <ele>133.97119966412</ele>
        <time>2021-04-05T10:17:38.047Z</time>
      </trkpt>
      <trkpt lat="49.39829" lon="3.30973">
        <ele>135.07705204934</ele>
        <time>2021-04-05T10:17:39.056Z</time>
      </trkpt>
      <trkpt lat="49.39825" lon="3.30949">
        <ele>136.33510024037</ele>
        <time>2021-04-05T10:17:40.070Z</time>
      </trkpt>
      <trkpt lat="49.39826" lon="3.30925">
        <ele>137.30559986575</ele>
        <time>2021-04-05T10:17:41.090Z</time>
      </trkpt>
      <trkpt lat="49.39826" lon="3.30925">
        <ele>137.57687517278</ele>
        <time>2021-04-05T10:17:42.110Z</time>
      </trkpt>
      <trkpt lat="49.39829" lon="3.30802">
        <ele>137.73388976706</ele>
        <time>2021-04-05T10:17:43.156Z</time>
      </trkpt>
      <trkpt lat="49.39811" lon="3.3074">
        <ele>136.83264668117</ele>
        <time>2021-04-05T10:17:44.217Z</time>
      </trkpt>
      <trkpt lat="49.3979" lon="3.30585">
        <ele>135.63514897123</ele>
        <time>2021-04-05T10:17:45.312Z</time>
      </trkpt>
      <trkpt lat="49.39774" lon="3.30523">
        <ele>133.42846013287</ele>
        <time>2021-04-05T10:17:46.422Z</time>
      </trkpt>
      <trkpt lat="49.39775" lon="3.30414">
        <ele>130.43321385092</ele>
        <time>2021-04-05T10:17:47.556Z</time>
      </trkpt>
      <trkpt lat="49.39777" lon="3.30389">
        <ele>126.54467113237</ele>
        <time>2021-04-05T10:17:48.695Z</time>
      </trkpt>
      <trkpt lat="49.39791" lon="3.30363">
        <ele>122.19674767916</ele>
        <time>2021-04-05T10:17:49.841Z</time>
      </trkpt>
      <trkpt lat="49.3984" lon="3.30353">
        <ele>116.96757767599</ele>
        <time>2021-04-05T10:17:51.004Z</time>
      </trkpt>
      <trkpt lat="49.3991" lon="3.30283">
        <ele>109.63971493257</ele>
        <time>2021-04-05T10:17:52.195Z</time>
      </trkpt>
      <trkpt lat="49.39894" lon="3.30091">
        <ele>100.66085976922</ele>
        <time>2021-04-05T10:17:53.428Z</time>
      </trkpt>
      <trkpt lat="49.39899" lon="3.30024">
        <ele>92.29569127125</ele>
        <time>2021-04-05T10:17:54.676Z</time>
      </trkpt>
      <trkpt lat="49.39923" lon="3.29855">
        <ele>84.30778070379</ele>
        <time>2021-04-05T10:17:55.961Z</time>
      </trkpt>
      <trkpt lat="49.39874" lon="3.29862">
        <ele>77.85580639544</ele>
        <time>2021-04-05T10:17:57.263Z</time>
      </trkpt>
      <trkpt lat="49.39809" lon="3.29841">
        <ele>71.96291711069</ele>
        <time>2021-04-05T10:17:58.587Z</time>
      </trkpt>
      <trkpt lat="49.39765" lon="3.29824">
        <ele>66.56303942502</ele>
        <time>2021-04-05T10:17:59.926Z</time>
      </trkpt>
      <trkpt lat="49.39733" lon="3.29812">
        <ele>58.17827669742</ele>
        <time>2021-04-05T10:18:01.276Z</time>
      </trkpt>
      <trkpt lat="49.3962" lon="3.29786">
        <ele>54.72830790074</ele>
        <time>2021-04-05T10:18:02.664Z</time>
      </trkpt>
      <trkpt lat="49.39579" lon="3.29774">
        <ele>52.25394759587</ele>
        <time>2021-04-05T10:18:04.066Z</time>
      </trkpt>
      <trkpt lat="49.39603" lon="3.29648">
        <ele>51.00667152024</ele>
        <time>2021-04-05T10:18:05.497Z</time>
      </trkpt>
      <trkpt lat="49.39598" lon="3.29557">
        <ele>50.47049605777</ele>
        <time>2021-04-05T10:18:06.948Z</time>
      </trkpt>
      <trkpt lat="49.39513" lon="3.29225">
        <ele>50.93873396265</ele>
        <time>2021-04-05T10:18:08.477Z</time>
      </trkpt>
      <trkpt lat="49.39447" lon="3.28871">
        <ele>52.24517857005</ele>
        <time>2021-04-05T10:18:10.086Z</time>
      </trkpt>
      <trkpt lat="49.39423" lon="3.28804">
        <ele>53.68796460251</ele>
        <time>2021-04-05T10:18:11.711Z</time>
      </trkpt>
      <trkpt lat="49.39336" lon="3.28635">
        <ele>55.76648413796</ele>
        <time>2021-04-05T10:18:13.383Z</time>
      </trkpt>
      <trkpt lat="49.39315" lon="3.28564">
        <ele>57.53152103895</ele>
        <time>2021-04-05T10:18:15.072Z</time>
      </trkpt>
      <trkpt lat="49.39276" lon="3.28286">
        <ele>59.71830794268</ele>
        <time>2021-04-05T10:18:16.823Z</time>
      </trkpt>
      <trkpt lat="49.39276" lon="3.28286">
        <ele>61.69472079586</ele>
        <time>2021-04-05T10:18:18.574Z</time>
      </trkpt>
      <trkpt lat="49.39246" lon="3.28066">
        <ele>64.0396187137</ele>
        <time>2021-04-05T10:18:20.374Z</time>
      </trkpt>
      <trkpt lat="49.3922" lon="3.2785">
        <ele>65.52960594622</ele>
        <time>2021-04-05T10:18:22.222Z</time>
      </trkpt>
      <trkpt lat="49.39228" lon="3.27744">
        <ele>67.08264652491</ele>
        <time>2021-04-05T10:18:24.093Z</time>
      </trkpt>
      <trkpt lat="49.39228" lon="3.27744">
        <ele>67.95107180664</ele>
        <time>2021-04-05T10:18:25.964Z</time>
      </trkpt>
      <trkpt lat="49.39232" lon="3.27694">
        <ele>68.28492695019</ele>
        <time>2021-04-05T10:18:27.846Z</time>
      </trkpt>
      <trkpt lat="49.39244" lon="3.27646">
        <ele>68.30998416443</ele>
        <time>2021-04-05T10:18:29.739Z</time>
      </trkpt>
      <trkpt lat="49.3928" lon="3.27556">
        <ele>67.96980096014</ele>
        <time>2021-04-05T10:18:31.655Z</time>
      </trkpt>
      <trkpt lat="49.39392" lon="3.27379">
        <ele>67.22463847352</ele>
        <time>2021-04-05T10:18:33.625Z</time>
      </trkpt>
      <trkpt lat="49.39295" lon="3.27345">
        <ele>64.59889835224</ele>
        <time>2021-04-05T10:18:35.628Z</time>
      </trkpt>
      <trkpt lat="49.39243" lon="3.27515">
        <ele>62.26794820192</ele>
        <time>2021-04-05T10:18:37.672Z</time>
      </trkpt>
      <trkpt lat="49.39198" lon="3.27491">
        <ele>59.08144051851</ele>
        <time>2021-04-05T10:18:39.732Z</time>
      </trkpt>
      <trkpt lat="49.39198" lon="3.27491">
        <ele>56.56275659587</ele>
        <time>2021-04-05T10:18:41.792Z</time>
      </trkpt>
      <trkpt lat="49.39177" lon="3.27479">
        <ele>53.67594554032</ele>
        <time>2021-04-05T10:18:43.859Z</time>
      </trkpt>
      <trkpt lat="49.39133" lon="3.27551">
        <ele>50.51222314977</ele>
        <time>2021-04-05T10:18:45.948Z</time>
      </trkpt>
      <trkpt lat="49.39086" lon="3.27544">
        <ele>47.71131982332</ele>
        <time>2021-04-05T10:18:48.052Z</time>
      </trkpt>
      <trkpt lat="49.39072" lon="3.27538">
        <ele>45.30001345335</ele>
        <time>2021-04-05T10:18:50.161Z</time>
      </trkpt>
      <trkpt lat="49.39015" lon="3.27522">
        <ele>43.23094015183</ele>
        <time>2021-04-05T10:18:52.289Z</time>
      </trkpt>
      <trkpt lat="49.38972" lon="3.27516">
        <ele>41.47243068122</ele>
        <time>2021-04-05T10:18:54.432Z</time>
      </trkpt>
      <trkpt lat="49.38975" lon="3.27478">
        <ele>39.85946580485</ele>
        <time>2021-04-05T10:18:56.583Z</time>
      </trkpt>
      <trkpt lat="49.38981" lon="3.27358">
        <ele>38.45137005927</ele>
        <time>2021-04-05T10:18:58.760Z</time>
      </trkpt>
      <trkpt lat="49.38971" lon="3.27301">
        <ele>37.49270255023</ele>
        <time>2021-04-05T10:19:00.950Z</time>
      </trkpt>
      <trkpt lat="49.38966" lon="3.27187">
        <ele>36.61151020487</ele>
        <time>2021-04-05T10:19:03.165Z</time>
      </trkpt>
      <trkpt lat="49.38976" lon="3.27008">
        <ele>36.19447937705</ele>
        <time>2021-04-05T10:19:05.419Z</time>
      </trkpt>
      <trkpt lat="49.38974" lon="3.26899">
        <ele>35.72402065052</ele>
        <time>2021-04-05T10:19:07.697Z</time>
      </trkpt>
      <trkpt lat="49.38963" lon="3.26824">
        <ele>35.63487459863</ele>
        <time>2021-04-05T10:19:09.992Z</time>
      </trkpt>
      <trkpt lat="49.38946" lon="3.26774">
        <ele>35.50331083164</ele>
        <time>2021-04-05T10:19:12.299Z</time>
      </trkpt>
      <trkpt lat="49.38935" lon="3.26775">
        <ele>35.5824246122</ele>
        <time>2021-04-05T10:19:14.610Z</time>
      </trkpt>
      <trkpt lat="49.38935" lon="3.26773">
        <ele>35.75113296316</ele>
        <time>2021-04-05T10:19:16.921Z</time>
      </trkpt>
      <trkpt lat="49.38862" lon="3.2678">
        <ele>35.99995004338</ele>
        <time>2021-04-05T10:19:19.256Z</time>
      </trkpt>
      <trkpt lat="49.38757" lon="3.26792">
        <ele>36.31935478572</ele>
        <time>2021-04-05T10:19:21.626Z</time>
      </trkpt>
      <trkpt lat="49.38717" lon="3.26798">
        <ele>36.69420062456</ele>
        <time>2021-04-05T10:19:24.010Z</time>
      </trkpt>
      <trkpt lat="49.38655" lon="3.26808">
        <ele>37.07165096661</ele>
        <time>2021-04-05T10:19:26.415Z</time>
      </trkpt>
      <trkpt lat="49.38649" lon="3.26809">
        <ele>37.51240535729</ele>
        <time>2021-04-05T10:19:28.822Z</time>
      </trkpt>
      <trkpt lat="49.38639" lon="3.26805">
        <ele>38.00300928753</ele>
        <time>2021-04-05T10:19:31.232Z</time>
      </trkpt>
      <trkpt lat="49.38631" lon="3.26798">
        <ele>38.52421112492</ele>
        <time>2021-04-05T10:19:33.645Z</time>
      </trkpt>
      <trkpt lat="49.38621" lon="3.26766">
        <ele>39.02936618629</ele>
        <time>2021-04-05T10:19:36.066Z</time>
      </trkpt>
      <trkpt lat="49.38614" lon="3.26749">
        <ele>39.52685370896</ele>
        <time>2021-04-05T10:19:38.491Z</time>
      </trkpt>
      <trkpt lat="49.38594" lon="3.26758">
        <ele>40.09383711039</ele>
        <time>2021-04-05T10:19:40.923Z</time>
      </trkpt>
      <trkpt lat="49.3856" lon="3.26778">
        <ele>40.73713008331</ele>
        <time>2021-04-05T10:19:43.367Z</time>
      </trkpt>
      <trkpt lat="49.38541" lon="3.26786">
        <ele>41.1398576384</ele>
        <time>2021-04-05T10:19:45.818Z</time>
      </trkpt>
      <trkpt lat="49.3847" lon="3.26805">
        <ele>41.44881136987</ele>
        <time>2021-04-05T10:19:48.293Z</time>
      </trkpt>
      <trkpt lat="49.38399" lon="3.26823">
        <ele>41.51444694062</ele>
        <time>2021-04-05T10:19:50.792Z</time>
      </trkpt>
      <trkpt lat="49.38364" lon="3.26836">
        <ele>41.70978261486</ele>
        <time>2021-04-05T10:19:53.303Z</time>
      </trkpt>
      <trkpt lat="49.3833" lon="3.26842">
        <ele>41.86328299734</ele>
        <time>2021-04-05T10:19:55.825Z</time>
      </trkpt>
      <trkpt lat="49.38292" lon="3.26845">
        <ele>42.03593336158</ele>
        <time>2021-04-05T10:19:58.360Z</time>
      </trkpt>
      <trkpt lat="49.38258" lon="3.26847">
        <ele>41.97139680001</ele>
        <time>2021-04-05T10:20:00.906Z</time>
      </trkpt>
      <trkpt lat="49.3826" lon="3.26832">
        <ele>42.05106352656</ele>
        <time>2021-04-05T10:20:03.456Z</time>
      </trkpt>
      <trkpt lat="49.38243" lon="3.26827">
        <ele>42.049979574</ele>
        <time>2021-04-05T10:20:06.012Z</time>
      </trkpt>
      <trkpt lat="49.38214" lon="3.26816">
        <ele>42.1274833381</ele>
        <time>2021-04-05T10:20:08.578Z</time>
      </trkpt>
      <trkpt lat="49.38214" lon="3.26818">
        <ele>42.36029808735</ele>
        <time>2021-04-05T10:20:11.144Z</time>
      </trkpt>
      <trkpt lat="49.38061" lon="3.26761">
        <ele>42.89737755115</ele>
        <time>2021-04-05T10:20:13.763Z</time>
      </trkpt>
      <trkpt lat="49.38052" lon="3.26755">
        <ele>43.29338785584</ele>
        <time>2021-04-05T10:20:16.385Z</time>
      </trkpt>
      <trkpt lat="49.38033" lon="3.26743">
        <ele>43.77035095246</ele>
        <time>2021-04-05T10:20:19.014Z</time>
      </trkpt>
      <trkpt lat="49.38006" lon="3.26678">
        <ele>44.06378277392</ele>
        <time>2021-04-05T10:20:21.659Z</time>
      </trkpt>
      <trkpt lat="49.37978" lon="3.2665">
        <ele>44.62792560621</ele>
        <time>2021-04-05T10:20:24.316Z</time>
      </trkpt>
      <trkpt lat="49.37904" lon="3.26726">
        <ele>46.12336835672</ele>
        <time>2021-04-05T10:20:27.002Z</time>
      </trkpt>
      <trkpt lat="49.37826" lon="3.26715">
        <ele>46.45535917804</ele>
        <time>2021-04-05T10:20:29.715Z</time>
      </trkpt>
      <trkpt lat="49.37826" lon="3.26715">
        <ele>46.89515154562</ele>
        <time>2021-04-05T10:20:32.428Z</time>
      </trkpt>
      <trkpt lat="49.378" lon="3.26732">
        <ele>47.21881859542</ele>
        <time>2021-04-05T10:20:35.150Z</time>
      </trkpt>
      <trkpt lat="49.37793" lon="3.26747">
        <ele>47.57041650052</ele>
        <time>2021-04-05T10:20:37.876Z</time>
      </trkpt>
      <trkpt lat="49.37793" lon="3.26709">
        <ele>47.61108486364</ele>
        <time>2021-04-05T10:20:40.610Z</time>
      </trkpt>
      <trkpt lat="49.37779" lon="3.26607">
        <ele>47.73596476533</ele>
        <time>2021-04-05T10:20:43.367Z</time>
      </trkpt>
      <trkpt lat="49.3776" lon="3.26496">
        <ele>47.88580081694</ele>
        <time>2021-04-05T10:20:46.149Z</time>
      </trkpt>
      <trkpt lat="49.37744" lon="3.26478">
        <ele>47.97863006806</ele>
        <time>2021-04-05T10:20:48.937Z</time>
      </trkpt>
      <trkpt lat="49.37634" lon="3.26388">
        <ele>48.25339800205</ele>
        <time>2021-04-05T10:20:51.767Z</time>
      </trkpt>
      <trkpt lat="49.37634" lon="3.26388">
        <ele>48.47174471894</ele>
        <time>2021-04-05T10:20:54.597Z</time>
      </trkpt>
      <trkpt lat="49.37591" lon="3.26352">
        <ele>48.80824909002</ele>
        <time>2021-04-05T10:20:57.444Z</time>
      </trkpt>
      <trkpt lat="49.37526" lon="3.26314">
        <ele>49.50915130793</ele>
        <time>2021-04-05T10:21:00.314Z</time>
      </trkpt>
      <trkpt lat="49.37456" lon="3.26193">
        <ele>50.00848937415</ele>
        <time>2021-04-05T10:21:03.219Z</time>
      </trkpt>
      <trkpt lat="49.37429" lon="3.26186">
        <ele>49.95505399312</ele>
        <time>2021-04-05T10:21:06.133Z</time>
      </trkpt>
      <trkpt lat="49.37384" lon="3.26128">
        <ele>49.40842840948</ele>
        <time>2021-04-05T10:21:09.067Z</time>
      </trkpt>
      <trkpt lat="49.37357" lon="3.2613">
        <ele>49.15491327855</ele>
        <time>2021-04-05T10:21:12.010Z</time>
      </trkpt>
      <trkpt lat="49.37291" lon="3.26221">
        <ele>49.50493716672</ele>
        <time>2021-04-05T10:21:14.982Z</time>
      </trkpt>
      <trkpt lat="49.37235" lon="3.2612">
        <ele>48.77942040003</ele>
        <time>2021-04-05T10:21:17.983Z</time>
      </trkpt>
      <trkpt lat="49.37235" lon="3.2612">
        <ele>48.55336155703</ele>
        <time>2021-04-05T10:21:20.984Z</time>
      </trkpt>
      <trkpt lat="49.37183" lon="3.26026">
        <ele>48.25733264658</ele>
        <time>2021-04-05T10:21:24.012Z</time>
      </trkpt>
      <trkpt lat="49.3716" lon="3.25947">
        <ele>48.20004877045</ele>
        <time>2021-04-05T10:21:27.059Z</time>
      </trkpt>
      <trkpt lat="49.3716" lon="3.25947">
        <ele>48.35616847346</ele>
        <time>2021-04-05T10:21:30.106Z</time>
      </trkpt>
      <trkpt lat="49.37155" lon="3.25926">
        <ele>48.75542633488</ele>
        <time>2021-04-05T10:21:33.158Z</time>
      </trkpt>
      <trkpt lat="49.37145" lon="3.25881">
        <ele>49.43306074551</ele>
        <time>2021-04-05T10:21:36.220Z</time>
      </trkpt>
      <trkpt lat="49.3711" lon="3.25811">
        <ele>50.64033264495</ele>
        <time>2021-04-05T10:21:39.301Z</time>
      </trkpt>
      <trkpt lat="49.37052" lon="3.25721">
        <ele>52.2200463053</ele>
        <time>2021-04-05T10:21:42.410Z</time>
      </trkpt>
      <trkpt lat="49.37031" lon="3.25652">
        <ele>53.8998533812</ele>
        <time>2021-04-05T10:21:45.536Z</time>
      </trkpt>
      <trkpt lat="49.37026" lon="3.25599">
        <ele>55.93364776616</ele>
        <time>2021-04-05T10:21:48.673Z</time>
      </trkpt>
      <trkpt lat="49.37039" lon="3.25459">
        <ele>58.36521196414</ele>
        <time>2021-04-05T10:21:51.841Z</time>
      </trkpt>
      <trkpt lat="49.36996" lon="3.25418">
        <ele>61.24804153502</ele>
        <time>2021-04-05T10:21:55.026Z</time>
      </trkpt>
      <trkpt lat="49.36995" lon="3.25417">
        <ele>64.09913668624</ele>
        <time>2021-04-05T10:21:58.211Z</time>
      </trkpt>
      <trkpt lat="49.36942" lon="3.25366">
        <ele>67.67604169614</ele>
        <time>2021-04-05T10:22:01.417Z</time>
      </trkpt>
      <trkpt lat="49.36937" lon="3.25362">
        <ele>71.18420461767</ele>
        <time>2021-04-05T10:22:04.625Z</time>
      </trkpt>
      <trkpt lat="49.36934" lon="3.25371">
        <ele>75.02187360135</ele>
        <time>2021-04-05T10:22:07.836Z</time>
      </trkpt>
      <trkpt lat="49.36925" lon="3.25396">
        <ele>79.1861954403</ele>
        <time>2021-04-05T10:22:11.053Z</time>
      </trkpt>
      <trkpt lat="49.36881" lon="3.2552">
        <ele>84.47330939948</ele>
        <time>2021-04-05T10:22:14.300Z</time>
      </trkpt>
      <trkpt lat="49.36862" lon="3.25542">
        <ele>89.38799331003</ele>
        <time>2021-04-05T10:22:17.555Z</time>
      </trkpt>
      <trkpt lat="49.36846" lon="3.25549">
        <ele>94.35315343691</ele>
        <time>2021-04-05T10:22:20.816Z</time>
      </trkpt>
      <trkpt lat="49.3679" lon="3.25515">
        <ele>99.4931914913</ele>
        <time>2021-04-05T10:22:24.097Z</time>
      </trkpt>
      <trkpt lat="49.36736" lon="3.255">
        <ele>104.1899817846</ele>
        <time>2021-04-05T10:22:27.397Z</time>
      </trkpt>
      <trkpt lat="49.36701" lon="3.25518">
        <ele>108.1819374461</ele>
        <time>2021-04-05T10:22:30.709Z</time>
      </trkpt>
      <trkpt lat="49.36611" lon="3.25605">
        <ele>111.89973076946</ele>
        <time>2021-04-05T10:22:34.056Z</time>
      </trkpt>
      <trkpt lat="49.3654" lon="3.25634">
        <ele>115.02495816966</ele>
        <time>2021-04-05T10:22:37.428Z</time>
      </trkpt>
      <trkpt lat="49.36429" lon="3.25884">
        <ele>118.03196631811</ele>
        <time>2021-04-05T10:22:40.866Z</time>
      </trkpt>
      <trkpt lat="49.36386" lon="3.26002">
        <ele>120.74920480504</ele>
        <time>2021-04-05T10:22:44.333Z</time>
      </trkpt>
      <trkpt lat="49.36351" lon="3.26036">
        <ele>122.82346755093</ele>
        <time>2021-04-05T10:22:47.814Z</time>
      </trkpt>
      <trkpt lat="49.36319" lon="3.26047">
        <ele>124.53460424525</ele>
        <time>2021-04-05T10:22:51.306Z</time>
      </trkpt>
      <trkpt lat="49.36223" lon="3.26082">
        <ele>126.02636842012</ele>
        <time>2021-04-05T10:22:54.831Z</time>
      </trkpt>
      <trkpt lat="49.36223" lon="3.26082">
        <ele>127.12715263883</ele>
        <time>2021-04-05T10:22:58.356Z</time>
      </trkpt>
      <trkpt lat="49.36062" lon="3.26149">
        <ele>128.25444920431</ele>
        <time>2021-04-05T10:23:01.936Z</time>
      </trkpt>
      <trkpt lat="49.36062" lon="3.26149">
        <ele>128.86086237704</ele>
        <time>2021-04-05T10:23:05.516Z</time>
      </trkpt>
      <trkpt lat="49.36008" lon="3.26172">
        <ele>129.43820630184</ele>
        <time>2021-04-05T10:23:09.115Z</time>
      </trkpt>
      <trkpt lat="49.35978" lon="3.26193">
        <ele>129.74874556193</ele>
        <time>2021-04-05T10:23:12.725Z</time>
      </trkpt>
      <trkpt lat="49.35901" lon="3.26202">
        <ele>129.91215116901</ele>
        <time>2021-04-05T10:23:16.361Z</time>
      </trkpt>
      <trkpt lat="49.35782" lon="3.26186">
        <ele>129.86689298456</ele>
        <time>2021-04-05T10:23:20.037Z</time>
      </trkpt>
      <trkpt lat="49.3559" lon="3.26083">
        <ele>129.51505161252</ele>
        <time>2021-04-05T10:23:23.781Z</time>
      </trkpt>
      <trkpt lat="49.3553" lon="3.26064">
        <ele>129.04184748166</ele>
        <time>2021-04-05T10:23:27.545Z</time>
      </trkpt>
      <trkpt lat="49.35364" lon="3.25989">
        <ele>128.839452202</ele>
        <time>2021-04-05T10:23:31.367Z</time>
      </trkpt>
      <trkpt lat="49.35262" lon="3.25966">
        <ele>128.10043458002</ele>
        <time>2021-04-05T10:23:35.223Z</time>
      </trkpt>
      <trkpt lat="49.35194" lon="3.25965">
        <ele>127.43630923334</ele>
        <time>2021-04-05T10:23:39.102Z</time>
      </trkpt>
      <trkpt lat="49.3511" lon="3.25982">
        <ele>126.95532824988</ele>
        <time>2021-04-05T10:23:43.009Z</time>
      </trkpt>
      <trkpt lat="49.35055" lon="3.25977">
        <ele>126.55310052762</ele>
        <time>2021-04-05T10:23:46.935Z</time>
      </trkpt>
      <trkpt lat="49.35003" lon="3.25997">
        <ele>126.41611551004</ele>
        <time>2021-04-05T10:23:50.879Z</time>
      </trkpt>
      <trkpt lat="49.34989" lon="3.2601">
        <ele>126.63014127344</ele>
        <time>2021-04-05T10:23:54.828Z</time>
      </trkpt>
      <trkpt lat="49.34989" lon="3.2601">
        <ele>127.13544161228</ele>
        <time>2021-04-05T10:23:58.777Z</time>
      </trkpt>
      <trkpt lat="49.3501" lon="3.2603">
        <ele>128.01132449401</ele>
        <time>2021-04-05T10:24:02.734Z</time>
      </trkpt>
      <trkpt lat="49.35083" lon="3.2615">
        <ele>129.51119906341</ele>
        <time>2021-04-05T10:24:06.727Z</time>
      </trkpt>
      <trkpt lat="49.35096" lon="3.2619">
        <ele>130.92701004174</ele>
        <time>2021-04-05T10:24:10.730Z</time>
      </trkpt>
      <trkpt lat="49.35094" lon="3.2625">
        <ele>132.57432363405</ele>
        <time>2021-04-05T10:24:14.746Z</time>
      </trkpt>
      <trkpt lat="49.35074" lon="3.26349">
        <ele>134.25578959593</ele>
        <time>2021-04-05T10:24:18.785Z</time>
      </trkpt>
      <trkpt lat="49.35059" lon="3.26528">
        <ele>136.4598468956</ele>
        <time>2021-04-05T10:24:22.863Z</time>
      </trkpt>
      <trkpt lat="49.35064" lon="3.26763">
        <ele>138.59814323804</ele>
        <time>2021-04-05T10:24:26.992Z</time>
      </trkpt>
      <trkpt lat="49.35088" lon="3.27055">
        <ele>140.73129299754</ele>
        <time>2021-04-05T10:24:31.185Z</time>
      </trkpt>
      <trkpt lat="49.35081" lon="3.27452">
        <ele>142.78314965259</ele>
        <time>2021-04-05T10:24:35.465Z</time>
      </trkpt>
      <trkpt lat="49.35096" lon="3.27679">
        <ele>144.39758258067</ele>
        <time>2021-04-05T10:24:39.795Z</time>
      </trkpt>
      <trkpt lat="49.35106" lon="3.27702">
        <ele>145.72357384073</ele>
        <time>2021-04-05T10:24:44.131Z</time>
      </trkpt>
      <trkpt lat="49.35128" lon="3.27724">
        <ele>146.87794190168</ele>
        <time>2021-04-05T10:24:48.475Z</time>
      </trkpt>
      <trkpt lat="49.35289" lon="3.27749">
        <ele>148.14274347455</ele>
        <time>2021-04-05T10:24:52.873Z</time>
      </trkpt>
      <trkpt lat="49.35289" lon="3.27749">
        <ele>148.66233562128</ele>
        <time>2021-04-05T10:24:57.271Z</time>
      </trkpt>
      <trkpt lat="49.35385" lon="3.27764">
        <ele>148.78821207069</ele>
        <time>2021-04-05T10:25:01.701Z</time>
      </trkpt>
      <trkpt lat="49.35355" lon="3.27813">
        <ele>148.63799715657</ele>
        <time>2021-04-05T10:25:06.146Z</time>
      </trkpt>
      <trkpt lat="49.35329" lon="3.27903">
        <ele>148.02539945873</ele>
        <time>2021-04-05T10:25:10.613Z</time>
      </trkpt>
      <trkpt lat="49.35316" lon="3.27973">
        <ele>147.33763910427</ele>
        <time>2021-04-05T10:25:15.095Z</time>
      </trkpt>
      <trkpt lat="49.35294" lon="3.28029">
        <ele>146.27304149241</ele>
        <time>2021-04-05T10:25:19.592Z</time>
      </trkpt>
      <trkpt lat="49.35299" lon="3.28032">
        <ele>145.17701488415</ele>
        <time>2021-04-05T10:25:24.091Z</time>
      </trkpt>
      <trkpt lat="49.35294" lon="3.28052">
        <ele>143.8453842864</ele>
        <time>2021-04-05T10:25:28.594Z</time>
      </trkpt>
      <trkpt lat="49.35284" lon="3.28119">
        <ele>142.27979785772</ele>
        <time>2021-04-05T10:25:33.112Z</time>
      </trkpt>
      <trkpt lat="49.35218" lon="3.28412">
        <ele>140.34285570251</ele>
        <time>2021-04-05T10:25:37.698Z</time>
      </trkpt>
      <trkpt lat="49.35212" lon="3.2845">
        <ele>139.06807422232</ele>
        <time>2021-04-05T10:25:42.292Z</time>
      </trkpt>
      <trkpt lat="49.35214" lon="3.28488">
        <ele>137.84750152129</ele>
        <time>2021-04-05T10:25:46.895Z</time>
      </trkpt>
      <trkpt lat="49.35185" lon="3.28624">
        <ele>135.41275702008</ele>
        <time>2021-04-05T10:25:51.529Z</time>
      </trkpt>
      <trkpt lat="49.35179" lon="3.28664">
        <ele>134.71682973123</ele>
        <time>2021-04-05T10:25:56.172Z</time>
      </trkpt>
      <trkpt lat="49.35174" lon="3.28722">
        <ele>134.30229067507</ele>
        <time>2021-04-05T10:26:00.828Z</time>
      </trkpt>
      <trkpt lat="49.35164" lon="3.28827">
        <ele>133.99623391991</ele>
        <time>2021-04-05T10:26:05.507Z</time>
      </trkpt>
      <trkpt lat="49.35164" lon="3.28841">
        <ele>133.75684293509</ele>
        <time>2021-04-05T10:26:10.189Z</time>
      </trkpt>
      <trkpt lat="49.35181" lon="3.28894">
        <ele>133.5424904658</ele>
        <time>2021-04-05T10:26:14.884Z</time>
      </trkpt>
      <trkpt lat="49.3518" lon="3.28925">
        <ele>133.46863322836</ele>
        <time>2021-04-05T10:26:19.585Z</time>
      </trkpt>
      <trkpt lat="49.35091" lon="3.29177">
        <ele>133.65895893299</ele>
        <time>2021-04-05T10:26:24.349Z</time>
      </trkpt>
      <trkpt lat="49.35062" lon="3.29285">
        <ele>133.57064475952</ele>
        <time>2021-04-05T10:26:29.138Z</time>
      </trkpt>
      <trkpt lat="49.35038" lon="3.29284">
        <ele>133.70530288901</ele>
        <time>2021-04-05T10:26:33.935Z</time>
      </trkpt>
      <trkpt lat="49.35025" lon="3.29316">
        <ele>133.64011648405</ele>
        <time>2021-04-05T10:26:38.740Z</time>
      </trkpt>
      <trkpt lat="49.35083" lon="3.29396">
        <ele>133.34556791711</ele>
        <time>2021-04-05T10:26:43.571Z</time>
      </trkpt>
      <trkpt lat="49.35098" lon="3.29406">
        <ele>132.72621035347</ele>
        <time>2021-04-05T10:26:48.408Z</time>
      </trkpt>
      <trkpt lat="49.35098" lon="3.29406">
        <ele>131.7735440786</ele>
        <time>2021-04-05T10:26:53.245Z</time>
      </trkpt>
      <trkpt lat="49.35102" lon="3.29409">
        <ele>130.40943540172</ele>
        <time>2021-04-05T10:26:58.083Z</time>
      </trkpt>
      <trkpt lat="49.35102" lon="3.29409">
        <ele>128.59300828868</ele>
        <time>2021-04-05T10:27:02.921Z</time>
      </trkpt>
      <trkpt lat="49.35123" lon="3.29424">
        <ele>126.25573517363</ele>
        <time>2021-04-05T10:27:07.767Z</time>
      </trkpt>
      <trkpt lat="49.35185" lon="3.29454">
        <ele>123.52982118943</ele>
        <time>2021-04-05T10:27:12.635Z</time>
      </trkpt>
      <trkpt lat="49.35274" lon="3.29489">
        <ele>119.68194984403</ele>
        <time>2021-04-05T10:27:17.533Z</time>
      </trkpt>
      <trkpt lat="49.3538" lon="3.2959">
        <ele>114.73312322602</ele>
        <time>2021-04-05T10:27:22.473Z</time>
      </trkpt>
      <trkpt lat="49.35398" lon="3.29583">
        <ele>110.2782209517</ele>
        <time>2021-04-05T10:27:27.419Z</time>
      </trkpt>
      <trkpt lat="49.35432" lon="3.29552">
        <ele>105.30112275517</ele>
        <time>2021-04-05T10:27:32.378Z</time>
      </trkpt>
      <trkpt lat="49.35447" lon="3.2955">
        <ele>100.92680089317</ele>
        <time>2021-04-05T10:27:37.342Z</time>
      </trkpt>
      <trkpt lat="49.35451" lon="3.29549">
        <ele>96.70077066187</ele>
        <time>2021-04-05T10:27:42.308Z</time>
      </trkpt>
      <trkpt lat="49.35498" lon="3.29549">
        <ele>91.94740860069</ele>
        <time>2021-04-05T10:27:47.289Z</time>
      </trkpt>
      <trkpt lat="49.35531" lon="3.29549">
        <ele>83.62805334662</ele>
        <time>2021-04-05T10:27:52.281Z</time>
      </trkpt>
      <trkpt lat="49.35534" lon="3.29625">
        <ele>79.77447978575</ele>
        <time>2021-04-05T10:27:57.290Z</time>
      </trkpt>
      <trkpt lat="49.35531" lon="3.29685">
        <ele>75.95129850456</ele>
        <time>2021-04-05T10:28:02.312Z</time>
      </trkpt>
      <trkpt lat="49.35493" lon="3.29774">
        <ele>72.41352073743</ele>
        <time>2021-04-05T10:28:07.357Z</time>
      </trkpt>
      <trkpt lat="49.35433" lon="3.29925">
        <ele>70.25131641404</ele>
        <time>2021-04-05T10:28:12.441Z</time>
      </trkpt>
      <trkpt lat="49.35374" lon="3.3011">
        <ele>68.30005880519</ele>
        <time>2021-04-05T10:28:17.570Z</time>
      </trkpt>
      <trkpt lat="49.3539" lon="3.30153">
        <ele>66.22348712096</ele>
        <time>2021-04-05T10:28:22.709Z</time>
      </trkpt>
      <trkpt lat="49.35491" lon="3.30273">
        <ele>64.00277138118</ele>
        <time>2021-04-05T10:28:27.891Z</time>
      </trkpt>
      <trkpt lat="49.35552" lon="3.30273">
        <ele>62.48456160059</ele>
        <time>2021-04-05T10:28:33.093Z</time>
      </trkpt>
      <trkpt lat="49.35589" lon="3.30274">
        <ele>61.45214713132</ele>
        <time>2021-04-05T10:28:38.308Z</time>
      </trkpt>
      <trkpt lat="49.35589" lon="3.30265">
        <ele>60.8661626166</ele>
        <time>2021-04-05T10:28:43.525Z</time>
      </trkpt>
      <trkpt lat="49.35589" lon="3.30265">
        <ele>60.60799277598</ele>
        <time>2021-04-05T10:28:48.742Z</time>
      </trkpt>
      <trkpt lat="49.35589" lon="3.30274">
        <ele>60.63631593734</ele>
        <time>2021-04-05T10:28:53.961Z</time>
      </trkpt>
      <trkpt lat="49.35552" lon="3.30273">
        <ele>62.48456160059</ele>
        <time>2021-04-05T10:28:59.192Z</time>
      </trkpt>
      <trkpt lat="49.35491" lon="3.30273">
        <ele>64.00277138118</ele>
        <time>2021-04-05T10:29:04.443Z</time>
      </trkpt>
      <trkpt lat="49.35481" lon="3.30354">
        <ele>61.94573737529</ele>
        <time>2021-04-05T10:29:09.712Z</time>
      </trkpt>
      <trkpt lat="49.35483" lon="3.30416">
        <ele>62.39088170171</ele>
        <time>2021-04-05T10:29:14.995Z</time>
      </trkpt>
      <trkpt lat="49.35475" lon="3.30496">
        <ele>62.57666516548</ele>
        <time>2021-04-05T10:29:20.295Z</time>
      </trkpt>
      <trkpt lat="49.35487" lon="3.30566">
        <ele>62.95592375265</ele>
        <time>2021-04-05T10:29:25.611Z</time>
      </trkpt>
      <trkpt lat="49.35364" lon="3.30788">
        <ele>63.86265926549</ele>
        <time>2021-04-05T10:29:30.990Z</time>
      </trkpt>
      <trkpt lat="49.35364" lon="3.30788">
        <ele>64.12718973659</ele>
        <time>2021-04-05T10:29:36.370Z</time>
      </trkpt>
      <trkpt lat="49.35323" lon="3.30849">
        <ele>64.25434391982</ele>
        <time>2021-04-05T10:29:41.769Z</time>
      </trkpt>
      <trkpt lat="49.35288" lon="3.30878">
        <ele>64.21266815713</ele>
        <time>2021-04-05T10:29:47.181Z</time>
      </trkpt>
      <trkpt lat="49.35177" lon="3.30953">
        <ele>63.89062225766</ele>
        <time>2021-04-05T10:29:52.634Z</time>
      </trkpt>
      <trkpt lat="49.35106" lon="3.30989">
        <ele>63.25760099611</ele>
        <time>2021-04-05T10:29:58.111Z</time>
      </trkpt>
      <trkpt lat="49.35106" lon="3.30989">
        <ele>62.80045762624</ele>
        <time>2021-04-05T10:30:03.588Z</time>
      </trkpt>
      <trkpt lat="49.35011" lon="3.31038">
        <ele>62.08889427187</ele>
        <time>2021-04-05T10:30:09.099Z</time>
      </trkpt>
      <trkpt lat="49.34835" lon="3.31155">
        <ele>61.27080517664</ele>
        <time>2021-04-05T10:30:14.674Z</time>
      </trkpt>
      <trkpt lat="49.34753" lon="3.31153">
        <ele>60.6393446553</ele>
        <time>2021-04-05T10:30:20.276Z</time>
      </trkpt>
      <trkpt lat="49.34704" lon="3.31172">
        <ele>59.81037815014</ele>
        <time>2021-04-05T10:30:25.895Z</time>
      </trkpt>
      <trkpt lat="49.34704" lon="3.31172">
        <ele>59.08503542346</ele>
        <time>2021-04-05T10:30:31.514Z</time>
      </trkpt>
      <trkpt lat="49.34691" lon="3.31178">
        <ele>58.3539597775</ele>
        <time>2021-04-05T10:30:37.138Z</time>
      </trkpt>
      <trkpt lat="49.34642" lon="3.31199">
        <ele>57.68490745633</ele>
        <time>2021-04-05T10:30:42.778Z</time>
      </trkpt>
      <trkpt lat="49.34625" lon="3.31201">
        <ele>56.95263945493</ele>
        <time>2021-04-05T10:30:48.424Z</time>
      </trkpt>
      <trkpt lat="49.34607" lon="3.31205">
        <ele>56.28194539515</ele>
        <time>2021-04-05T10:30:54.076Z</time>
      </trkpt>
      <trkpt lat="49.34641" lon="3.31341">
        <ele>55.45392508407</ele>
        <time>2021-04-05T10:30:59.760Z</time>
      </trkpt>
      <trkpt lat="49.34658" lon="3.31384">
        <ele>54.59994848271</ele>
        <time>2021-04-05T10:31:05.455Z</time>
      </trkpt>
      <trkpt lat="49.34697" lon="3.31451">
        <ele>53.98205125682</ele>
        <time>2021-04-05T10:31:11.170Z</time>
      </trkpt>
      <trkpt lat="49.34738" lon="3.31519">
        <ele>53.37272262351</ele>
        <time>2021-04-05T10:31:16.905Z</time>
      </trkpt>
      <trkpt lat="49.34738" lon="3.31519">
        <ele>53.02292420647</ele>
        <time>2021-04-05T10:31:22.640Z</time>
      </trkpt>
      <trkpt lat="49.34756" lon="3.31544">
        <ele>52.7094905391</ele>
        <time>2021-04-05T10:31:28.383Z</time>
      </trkpt>
      <trkpt lat="49.34756" lon="3.31544">
        <ele>52.64341804914</ele>
        <time>2021-04-05T10:31:34.126Z</time>
      </trkpt>
      <trkpt lat="49.3482" lon="3.31622">
        <ele>52.8019012816</ele>
        <time>2021-04-05T10:31:39.896Z</time>
      </trkpt>
      <trkpt lat="49.3482" lon="3.31622">
        <ele>53.03782884414</ele>
        <time>2021-04-05T10:31:45.666Z</time>
      </trkpt>
      <trkpt lat="49.34834" lon="3.31641">
        <ele>53.44171394749</ele>
        <time>2021-04-05T10:31:51.443Z</time>
      </trkpt>
      <trkpt lat="49.34834" lon="3.31641">
        <ele>53.95133624924</ele>
        <time>2021-04-05T10:31:57.220Z</time>
      </trkpt>
      <trkpt lat="49.34869" lon="3.31723">
        <ele>54.70518790893</ele>
        <time>2021-04-05T10:32:03.018Z</time>
      </trkpt>
      <trkpt lat="49.34899" lon="3.31773">
        <ele>55.69558311482</ele>
        <time>2021-04-05T10:32:08.831Z</time>
      </trkpt>
      <trkpt lat="49.34912" lon="3.31785">
        <ele>56.58868277786</ele>
        <time>2021-04-05T10:32:14.649Z</time>
      </trkpt>
      <trkpt lat="49.34885" lon="3.31844">
        <ele>57.45371410609</ele>
        <time>2021-04-05T10:32:20.482Z</time>
      </trkpt>
      <trkpt lat="49.34874" lon="3.31878">
        <ele>58.29868672392</ele>
        <time>2021-04-05T10:32:26.324Z</time>
      </trkpt>
      <trkpt lat="49.34874" lon="3.31878">
        <ele>59.09659499776</ele>
        <time>2021-04-05T10:32:32.166Z</time>
      </trkpt>
      <trkpt lat="49.34863" lon="3.3191">
        <ele>59.8287828717</ele>
        <time>2021-04-05T10:32:38.016Z</time>
      </trkpt>
      <trkpt lat="49.34853" lon="3.31944">
        <ele>60.72527929606</ele>
        <time>2021-04-05T10:32:43.874Z</time>
      </trkpt>
      <trkpt lat="49.34853" lon="3.31944">
        <ele>61.46172800802</ele>
        <time>2021-04-05T10:32:49.732Z</time>
      </trkpt>
      <trkpt lat="49.34833" lon="3.3201">
        <ele>62.50046654637</ele>
        <time>2021-04-05T10:32:55.605Z</time>
      </trkpt>
      <trkpt lat="49.34819" lon="3.32034">
        <ele>63.22013090365</ele>
        <time>2021-04-05T10:33:01.485Z</time>
      </trkpt>
      <trkpt lat="49.34712" lon="3.32099">
        <ele>63.2614591392</ele>
        <time>2021-04-05T10:33:07.404Z</time>
      </trkpt>
      <trkpt lat="49.34722" lon="3.32138">
        <ele>64.12690128352</ele>
        <time>2021-04-05T10:33:13.332Z</time>
      </trkpt>
      <trkpt lat="49.34703" lon="3.32167">
        <ele>64.68354622985</ele>
        <time>2021-04-05T10:33:19.269Z</time>
      </trkpt>
      <trkpt lat="49.34683" lon="3.32221">
        <ele>65.41726255982</ele>
        <time>2021-04-05T10:33:25.219Z</time>
      </trkpt>
      <trkpt lat="49.34679" lon="3.32232">
        <ele>65.9284274598</ele>
        <time>2021-04-05T10:33:31.172Z</time>
      </trkpt>
      <trkpt lat="49.34676" lon="3.32256">
        <ele>66.31473006397</ele>
        <time>2021-04-05T10:33:37.130Z</time>
      </trkpt>
      <trkpt lat="49.34687" lon="3.32299">
        <ele>66.92565665285</ele>
        <time>2021-04-05T10:33:43.099Z</time>
      </trkpt>
      <trkpt lat="49.34683" lon="3.323">
        <ele>67.10312138017</ele>
        <time>2021-04-05T10:33:49.069Z</time>
      </trkpt>
      <trkpt lat="49.34573" lon="3.32351">
        <ele>66.78491955723</ele>
        <time>2021-04-05T10:33:55.078Z</time>
      </trkpt>
      <trkpt lat="49.34463" lon="3.32402">
        <ele>66.68650607947</ele>
        <time>2021-04-05T10:34:01.125Z</time>
      </trkpt>
      <trkpt lat="49.34354" lon="3.32437">
        <ele>66.57840406872</ele>
        <time>2021-04-05T10:34:07.209Z</time>
      </trkpt>
      <trkpt lat="49.34354" lon="3.32437">
        <ele>66.63577633122</ele>
        <time>2021-04-05T10:34:13.293Z</time>
      </trkpt>
      <trkpt lat="49.34314" lon="3.3245">
        <ele>66.80113359581</ele>
        <time>2021-04-05T10:34:19.391Z</time>
      </trkpt>
      <trkpt lat="49.3425" lon="3.32471">
        <ele>66.89392552286</ele>
        <time>2021-04-05T10:34:25.511Z</time>
      </trkpt>
      <trkpt lat="49.34072" lon="3.32508">
        <ele>67.31560686472</ele>
        <time>2021-04-05T10:34:31.691Z</time>
      </trkpt>
      <trkpt lat="49.33925" lon="3.32542">
        <ele>67.64909363035</ele>
        <time>2021-04-05T10:34:37.920Z</time>
      </trkpt>
      <trkpt lat="49.33601" lon="3.32671">
        <ele>67.39675665787</ele>
        <time>2021-04-05T10:34:44.261Z</time>
      </trkpt>
      <trkpt lat="49.33555" lon="3.32689">
        <ele>66.70082897388</ele>
        <time>2021-04-05T10:34:50.617Z</time>
      </trkpt>
      <trkpt lat="49.33381" lon="3.32772">
        <ele>65.52719519886</ele>
        <time>2021-04-05T10:34:57.034Z</time>
      </trkpt>
      <trkpt lat="49.33347" lon="3.32789">
        <ele>64.36348331826</ele>
        <time>2021-04-05T10:35:03.463Z</time>
      </trkpt>
      <trkpt lat="49.3333" lon="3.32798">
        <ele>63.34577903182</ele>
        <time>2021-04-05T10:35:09.898Z</time>
      </trkpt>
      <trkpt lat="49.33308" lon="3.3281">
        <ele>62.24504019552</ele>
        <time>2021-04-05T10:35:16.341Z</time>
      </trkpt>
      <trkpt lat="49.33211" lon="3.32861">
        <ele>61.08686127958</ele>
        <time>2021-04-05T10:35:22.818Z</time>
      </trkpt>
      <trkpt lat="49.33214" lon="3.32878">
        <ele>60.5303930231</ele>
        <time>2021-04-05T10:35:29.299Z</time>
      </trkpt>
      <trkpt lat="49.3319" lon="3.33084">
        <ele>60.24354575198</ele>
        <time>2021-04-05T10:35:35.826Z</time>
      </trkpt>
      <trkpt lat="49.33189" lon="3.33137">
        <ele>59.98881380362</ele>
        <time>2021-04-05T10:35:42.364Z</time>
      </trkpt>
      <trkpt lat="49.33183" lon="3.33249">
        <ele>60.09512766934</ele>
        <time>2021-04-05T10:35:48.927Z</time>
      </trkpt>
      <trkpt lat="49.33169" lon="3.333">
        <ele>60.49301535804</ele>
        <time>2021-04-05T10:35:55.502Z</time>
      </trkpt>
      <trkpt lat="49.33147" lon="3.33352">
        <ele>61.27608014973</ele>
        <time>2021-04-05T10:36:02.091Z</time>
      </trkpt>
      <trkpt lat="49.3312" lon="3.33411">
        <ele>62.59660659882</ele>
        <time>2021-04-05T10:36:08.695Z</time>
      </trkpt>
      <trkpt lat="49.32994" lon="3.33686">
        <ele>63.88026613772</ele>
        <time>2021-04-05T10:36:15.372Z</time>
      </trkpt>
      <trkpt lat="49.33001" lon="3.337">
        <ele>65.64929372094</ele>
        <time>2021-04-05T10:36:22.053Z</time>
      </trkpt>
      <trkpt lat="49.3303" lon="3.33705">
        <ele>67.78970665777</ele>
        <time>2021-04-05T10:36:28.744Z</time>
      </trkpt>
      <trkpt lat="49.33117" lon="3.33694">
        <ele>70.89983458057</ele>
        <time>2021-04-05T10:36:35.464Z</time>
      </trkpt>
      <trkpt lat="49.33207" lon="3.337">
        <ele>74.15069950367</ele>
        <time>2021-04-05T10:36:42.214Z</time>
      </trkpt>
      <trkpt lat="49.33209" lon="3.33749">
        <ele>76.39517654535</ele>
        <time>2021-04-05T10:36:48.975Z</time>
      </trkpt>
      <trkpt lat="49.33221" lon="3.33819">
        <ele>78.4306381817</ele>
        <time>2021-04-05T10:36:55.751Z</time>
      </trkpt>
      <trkpt lat="49.33228" lon="3.33851">
        <ele>80.34713570566</ele>
        <time>2021-04-05T10:37:02.535Z</time>
      </trkpt>
      <trkpt lat="49.33255" lon="3.33906">
        <ele>82.39698417752</ele>
        <time>2021-04-05T10:37:09.334Z</time>
      </trkpt>
      <trkpt lat="49.33255" lon="3.33906">
        <ele>83.82912085442</ele>
        <time>2021-04-05T10:37:16.133Z</time>
      </trkpt>
      <trkpt lat="49.33228" lon="3.33851">
        <ele>80.34713570566</ele>
        <time>2021-04-05T10:37:22.947Z</time>
      </trkpt>
      <trkpt lat="49.33221" lon="3.33819">
        <ele>78.4306381817</ele>
        <time>2021-04-05T10:37:29.768Z</time>
      </trkpt>
      <trkpt lat="49.33209" lon="3.33749">
        <ele>76.39517654535</ele>
        <time>2021-04-05T10:37:36.605Z</time>
      </trkpt>
      <trkpt lat="49.33207" lon="3.337">
        <ele>74.15069950367</ele>
        <time>2021-04-05T10:37:43.453Z</time>
      </trkpt>
      <trkpt lat="49.33207" lon="3.337">
        <ele>90.04786065642</ele>
        <time>2021-04-05T10:37:50.301Z</time>
      </trkpt>
      <trkpt lat="49.33214" lon="3.3365">
        <ele>91.81424730881</ele>
        <time>2021-04-05T10:37:57.160Z</time>
      </trkpt>
      <trkpt lat="49.33253" lon="3.33582">
        <ele>94.12624101409</ele>
        <time>2021-04-05T10:38:04.038Z</time>
      </trkpt>
      <trkpt lat="49.33269" lon="3.33632">
        <ele>97.46479642515</ele>
        <time>2021-04-05T10:38:10.929Z</time>
      </trkpt>
      <trkpt lat="49.33314" lon="3.33702">
        <ele>101.85816935492</ele>
        <time>2021-04-05T10:38:17.841Z</time>
      </trkpt>
      <trkpt lat="49.33331" lon="3.33724">
        <ele>105.24098685467</ele>
        <time>2021-04-05T10:38:24.760Z</time>
      </trkpt>
      <trkpt lat="49.33353" lon="3.33735">
        <ele>108.70126204795</ele>
        <time>2021-04-05T10:38:31.687Z</time>
      </trkpt>
      <trkpt lat="49.33361" lon="3.33686">
        <ele>111.78132995139</ele>
        <time>2021-04-05T10:38:38.625Z</time>
      </trkpt>
      <trkpt lat="49.33373" lon="3.33673">
        <ele>114.91634493945</ele>
        <time>2021-04-05T10:38:45.568Z</time>
      </trkpt>
      <trkpt lat="49.3341" lon="3.33682">
        <ele>118.25910212536</ele>
        <time>2021-04-05T10:38:52.523Z</time>
      </trkpt>
      <trkpt lat="49.33433" lon="3.33701">
        <ele>121.51210011458</ele>
        <time>2021-04-05T10:38:59.487Z</time>
      </trkpt>
      <trkpt lat="49.33433" lon="3.33701">
        <ele>124.45560521078</ele>
        <time>2021-04-05T10:39:06.451Z</time>
      </trkpt>
      <trkpt lat="49.33437" lon="3.33704">
        <ele>127.42785731302</ele>
        <time>2021-04-05T10:39:13.417Z</time>
      </trkpt>
      <trkpt lat="49.33437" lon="3.33704">
        <ele>130.33117447029</ele>
        <time>2021-04-05T10:39:20.383Z</time>
      </trkpt>
      <trkpt lat="49.33448" lon="3.33717">
        <ele>133.42326465414</ele>
        <time>2021-04-05T10:39:27.353Z</time>
      </trkpt>
      <trkpt lat="49.33461" lon="3.33735">
        <ele>136.5703389643</ele>
        <time>2021-04-05T10:39:34.329Z</time>
      </trkpt>
      <trkpt lat="49.33569" lon="3.33732">
        <ele>140.20078714603</ele>
        <time>2021-04-05T10:39:41.341Z</time>
      </trkpt>
      <trkpt lat="49.33603" lon="3.33739">
        <ele>143.19406287341</ele>
        <time>2021-04-05T10:39:48.365Z</time>
      </trkpt>
      <trkpt lat="49.33596" lon="3.3386">
        <ele>146.01923520315</ele>
        <time>2021-04-05T10:39:55.415Z</time>
      </trkpt>
      <trkpt lat="49.33649" lon="3.33881">
        <ele>148.26063105379</ele>
        <time>2021-04-05T10:40:02.483Z</time>
      </trkpt>
      <trkpt lat="49.33649" lon="3.33881">
        <ele>150.29515535003</ele>
        <time>2021-04-05T10:40:09.551Z</time>
      </trkpt>
      <trkpt lat="49.3411" lon="3.34067">
        <ele>152.79796760561</ele>
        <time>2021-04-05T10:40:16.778Z</time>
      </trkpt>
      <trkpt lat="49.3446" lon="3.34169">
        <ele>154.30132236499</ele>
        <time>2021-04-05T10:40:24.124Z</time>
      </trkpt>
      <trkpt lat="49.3446" lon="3.34169">
        <ele>155.29389114569</ele>
        <time>2021-04-05T10:40:31.470Z</time>
      </trkpt>
      <trkpt lat="49.348" lon="3.34269">
        <ele>156.04095866761</ele>
        <time>2021-04-05T10:40:38.932Z</time>
      </trkpt>
      <trkpt lat="49.348" lon="3.34269">
        <ele>156.19217301548</ele>
        <time>2021-04-05T10:40:46.394Z</time>
      </trkpt>
      <trkpt lat="49.34849" lon="3.34284">
        <ele>155.91570934494</ele>
        <time>2021-04-05T10:40:53.873Z</time>
      </trkpt>
      <trkpt lat="49.34849" lon="3.34284">
        <ele>155.22421540048</ele>
        <time>2021-04-05T10:41:01.352Z</time>
      </trkpt>
      <trkpt lat="49.34903" lon="3.34302">
        <ele>154.2016021894</ele>
        <time>2021-04-05T10:41:08.849Z</time>
      </trkpt>
      <trkpt lat="49.34948" lon="3.34239">
        <ele>152.76972207642</ele>
        <time>2021-04-05T10:41:16.366Z</time>
      </trkpt>
      <trkpt lat="49.35115" lon="3.34038">
        <ele>150.4530833493</ele>
        <time>2021-04-05T10:41:23.954Z</time>
      </trkpt>
      <trkpt lat="49.35196" lon="3.33988">
        <ele>148.21766336132</ele>
        <time>2021-04-05T10:41:31.571Z</time>
      </trkpt>
      <trkpt lat="49.35275" lon="3.33965">
        <ele>145.84655679116</ele>
        <time>2021-04-05T10:41:39.215Z</time>
      </trkpt>
      <trkpt lat="49.35314" lon="3.33936">
        <ele>143.48052968755</ele>
        <time>2021-04-05T10:41:46.874Z</time>
      </trkpt>
      <trkpt lat="49.3533" lon="3.3392">
        <ele>141.26874128121</ele>
        <time>2021-04-05T10:41:54.539Z</time>
      </trkpt>
      <trkpt lat="49.35369" lon="3.33881">
        <ele>138.89069020973</ele>
        <time>2021-04-05T10:42:02.219Z</time>
      </trkpt>
      <trkpt lat="49.35397" lon="3.33863">
        <ele>136.81557067577</ele>
        <time>2021-04-05T10:42:09.909Z</time>
      </trkpt>
      <trkpt lat="49.35452" lon="3.3395">
        <ele>134.98194834545</ele>
        <time>2021-04-05T10:42:17.626Z</time>
      </trkpt>
      <trkpt lat="49.35462" lon="3.33974">
        <ele>133.61841325724</ele>
        <time>2021-04-05T10:42:25.349Z</time>
      </trkpt>
      <trkpt lat="49.35467" lon="3.34028">
        <ele>132.75845703058</ele>
        <time>2021-04-05T10:42:33.084Z</time>
      </trkpt>
      <trkpt lat="49.35462" lon="3.34334">
        <ele>132.06124040979</ele>
        <time>2021-04-05T10:42:40.886Z</time>
      </trkpt>
      <trkpt lat="49.35454" lon="3.34412">
        <ele>131.66135908325</ele>
        <time>2021-04-05T10:42:48.705Z</time>
      </trkpt>
      <trkpt lat="49.35452" lon="3.34445">
        <ele>131.53422878374</ele>
        <time>2021-04-05T10:42:56.531Z</time>
      </trkpt>
      <trkpt lat="49.35454" lon="3.34493">
        <ele>131.66152457049</ele>
        <time>2021-04-05T10:43:04.368Z</time>
      </trkpt>
      <trkpt lat="49.35473" lon="3.34594">
        <ele>131.96300993588</ele>
        <time>2021-04-05T10:43:12.228Z</time>
      </trkpt>
      <trkpt lat="49.35488" lon="3.34745">
        <ele>132.18767605873</ele>
        <time>2021-04-05T10:43:20.121Z</time>
      </trkpt>
      <trkpt lat="49.35501" lon="3.34807">
        <ele>132.50353933734</ele>
        <time>2021-04-05T10:43:28.028Z</time>
      </trkpt>
      <trkpt lat="49.35688" lon="3.35257">
        <ele>132.92181938076</ele>
        <time>2021-04-05T10:43:36.051Z</time>
      </trkpt>
      <trkpt lat="49.35711" lon="3.35304">
        <ele>133.23209149993</ele>
        <time>2021-04-05T10:43:44.087Z</time>
      </trkpt>
      <trkpt lat="49.35711" lon="3.35304">
        <ele>133.65261361565</ele>
        <time>2021-04-05T10:43:52.123Z</time>
      </trkpt>
      <trkpt lat="49.35742" lon="3.35369">
        <ele>134.08699846431</ele>
        <time>2021-04-05T10:44:00.177Z</time>
      </trkpt>
      <trkpt lat="49.35742" lon="3.35369">
        <ele>134.53937331057</ele>
        <time>2021-04-05T10:44:08.231Z</time>
      </trkpt>
      <trkpt lat="49.35772" lon="3.35389">
        <ele>135.04600689687</ele>
        <time>2021-04-05T10:44:16.296Z</time>
      </trkpt>
      <trkpt lat="49.35791" lon="3.35362">
        <ele>135.49585595861</ele>
        <time>2021-04-05T10:44:24.369Z</time>
      </trkpt>
      <trkpt lat="49.35809" lon="3.35358">
        <ele>136.04011932007</ele>
        <time>2021-04-05T10:44:32.448Z</time>
      </trkpt>
      <trkpt lat="49.35883" lon="3.35227">
        <ele>136.46737807129</ele>
        <time>2021-04-05T10:44:40.565Z</time>
      </trkpt>
      <trkpt lat="49.35919" lon="3.35199">
        <ele>137.04018794363</ele>
        <time>2021-04-05T10:44:48.695Z</time>
      </trkpt>
      <trkpt lat="49.36346" lon="3.35298">
        <ele>137.59235566927</ele>
        <time>2021-04-05T10:44:56.970Z</time>
      </trkpt>
      <trkpt lat="49.362" lon="3.35947">
        <ele>138.20228354171</ele>
        <time>2021-04-05T10:45:05.394Z</time>
      </trkpt>
      <trkpt lat="49.362" lon="3.35947">
        <ele>138.83301464274</ele>
        <time>2021-04-05T10:45:13.818Z</time>
      </trkpt>
      <trkpt lat="49.36193" lon="3.36104">
        <ele>139.75989159172</ele>
        <time>2021-04-05T10:45:22.277Z</time>
      </trkpt>
      <trkpt lat="49.36179" lon="3.36174">
        <ele>140.1610212133</ele>
        <time>2021-04-05T10:45:30.752Z</time>
      </trkpt>
      <trkpt lat="49.36107" lon="3.36287">
        <ele>140.48696834285</ele>
        <time>2021-04-05T10:45:39.261Z</time>
      </trkpt>
      <trkpt lat="49.3607" lon="3.36359">
        <ele>141.08004418965</ele>
        <time>2021-04-05T10:45:47.790Z</time>
      </trkpt>
      <trkpt lat="49.36062" lon="3.36455">
        <ele>141.28708645583</ele>
        <time>2021-04-05T10:45:56.340Z</time>
      </trkpt>
      <trkpt lat="49.3607" lon="3.36538">
        <ele>141.16123962202</ele>
        <time>2021-04-05T10:46:04.908Z</time>
      </trkpt>
      <trkpt lat="49.3607" lon="3.36633">
        <ele>140.91518510702</ele>
        <time>2021-04-05T10:46:13.497Z</time>
      </trkpt>
      <trkpt lat="49.36048" lon="3.3674">
        <ele>140.02288375018</ele>
        <time>2021-04-05T10:46:22.110Z</time>
      </trkpt>
      <trkpt lat="49.36048" lon="3.3674">
        <ele>138.85435674003</ele>
        <time>2021-04-05T10:46:30.723Z</time>
      </trkpt>
      <trkpt lat="49.36018" lon="3.36888">
        <ele>137.128533288</ele>
        <time>2021-04-05T10:46:39.370Z</time>
      </trkpt>
      <trkpt lat="49.35981" lon="3.3697">
        <ele>134.96049691261</ele>
        <time>2021-04-05T10:46:48.039Z</time>
      </trkpt>
      <trkpt lat="49.35995" lon="3.36947">
        <ele>132.35526477649</ele>
        <time>2021-04-05T10:46:56.715Z</time>
      </trkpt>
      <trkpt lat="49.36016" lon="3.36919">
        <ele>129.26974838991</ele>
        <time>2021-04-05T10:47:05.400Z</time>
      </trkpt>
      <trkpt lat="49.36066" lon="3.36895">
        <ele>125.59943301113</ele>
        <time>2021-04-05T10:47:14.102Z</time>
      </trkpt>
      <trkpt lat="49.36143" lon="3.36821">
        <ele>120.71995334001</ele>
        <time>2021-04-05T10:47:22.835Z</time>
      </trkpt>
      <trkpt lat="49.36195" lon="3.36748">
        <ele>116.16906721655</ele>
        <time>2021-04-05T10:47:31.591Z</time>
      </trkpt>
      <trkpt lat="49.36218" lon="3.36647">
        <ele>111.83963410804</ele>
        <time>2021-04-05T10:47:40.371Z</time>
      </trkpt>
      <trkpt lat="49.3623" lon="3.36656">
        <ele>107.45388226264</ele>
        <time>2021-04-05T10:47:49.155Z</time>
      </trkpt>
      <trkpt lat="49.36375" lon="3.36669">
        <ele>101.01869529426</ele>
        <time>2021-04-05T10:47:57.987Z</time>
      </trkpt>
      <trkpt lat="49.36375" lon="3.36669">
        <ele>97.07332734555</ele>
        <time>2021-04-05T10:48:06.819Z</time>
      </trkpt>
      <trkpt lat="49.36381" lon="3.36599">
        <ele>93.65816328485</ele>
        <time>2021-04-05T10:48:15.667Z</time>
      </trkpt>
      <trkpt lat="49.36383" lon="3.36433">
        <ele>89.96512894382</ele>
        <time>2021-04-05T10:48:24.551Z</time>
      </trkpt>
      <trkpt lat="49.36414" lon="3.36369">
        <ele>86.65081810261</ele>
        <time>2021-04-05T10:48:33.452Z</time>
      </trkpt>
      <trkpt lat="49.36417" lon="3.36348">
        <ele>83.73648740861</ele>
        <time>2021-04-05T10:48:42.358Z</time>
      </trkpt>
      <trkpt lat="49.36417" lon="3.36348">
        <ele>80.91899326613</ele>
        <time>2021-04-05T10:48:51.264Z</time>
      </trkpt>
      <trkpt lat="49.36424" lon="3.36299">
        <ele>78.23568453006</ele>
        <time>2021-04-05T10:49:00.181Z</time>
      </trkpt>
      <trkpt lat="49.36443" lon="3.36245">
        <ele>75.36551478274</ele>
        <time>2021-04-05T10:49:09.111Z</time>
      </trkpt>
      <trkpt lat="49.36493" lon="3.36142">
        <ele>72.39905689093</ele>
        <time>2021-04-05T10:49:18.069Z</time>
      </trkpt>
      <trkpt lat="49.36554" lon="3.3606">
        <ele>70.320718264</ele>
        <time>2021-04-05T10:49:27.054Z</time>
      </trkpt>
      <trkpt lat="49.36817" lon="3.36343">
        <ele>65.99223774312</ele>
        <time>2021-04-05T10:49:36.146Z</time>
      </trkpt>
      <trkpt lat="49.3683" lon="3.36348">
        <ele>63.60751952937</ele>
        <time>2021-04-05T10:49:45.243Z</time>
      </trkpt>
      <trkpt lat="49.36837" lon="3.3635">
        <ele>61.48550193697</ele>
        <time>2021-04-05T10:49:54.342Z</time>
      </trkpt>
      <trkpt lat="49.36844" lon="3.36347">
        <ele>59.55718546009</ele>
        <time>2021-04-05T10:50:03.444Z</time>
      </trkpt>
      <trkpt lat="49.36861" lon="3.36355">
        <ele>57.73670895368</ele>
        <time>2021-04-05T10:50:12.552Z</time>
      </trkpt>
      <trkpt lat="49.36866" lon="3.36373">
        <ele>56.20079211189</ele>
        <time>2021-04-05T10:50:21.664Z</time>
      </trkpt>
      <trkpt lat="49.36875" lon="3.36382">
        <ele>54.80001274977</ele>
        <time>2021-04-05T10:50:30.779Z</time>
      </trkpt>
      <trkpt lat="49.36953" lon="3.36429">
        <ele>53.21174793494</ele>
        <time>2021-04-05T10:50:39.923Z</time>
      </trkpt>
      <trkpt lat="49.37048" lon="3.36482">
        <ele>51.93834552804</ele>
        <time>2021-04-05T10:50:49.100Z</time>
      </trkpt>
      <trkpt lat="49.37091" lon="3.36502">
        <ele>50.95740765228</ele>
        <time>2021-04-05T10:50:58.292Z</time>
      </trkpt>
      <trkpt lat="49.37091" lon="3.36502">
        <ele>50.15179182831</ele>
        <time>2021-04-05T10:51:07.484Z</time>
      </trkpt>
      <trkpt lat="49.37258" lon="3.36603">
        <ele>49.32294144932</ele>
        <time>2021-04-05T10:51:16.736Z</time>
      </trkpt>
      <trkpt lat="49.3731" lon="3.36645">
        <ele>48.67151100798</ele>
        <time>2021-04-05T10:51:26.008Z</time>
      </trkpt>
      <trkpt lat="49.37377" lon="3.3673">
        <ele>48.02524728803</ele>
        <time>2021-04-05T10:51:35.309Z</time>
      </trkpt>
      <trkpt lat="49.37377" lon="3.3673">
        <ele>47.58350708515</ele>
        <time>2021-04-05T10:51:44.610Z</time>
      </trkpt>
      <trkpt lat="49.37459" lon="3.36867">
        <ele>47.10402032335</ele>
        <time>2021-04-05T10:51:53.951Z</time>
      </trkpt>
      <trkpt lat="49.37479" lon="3.36918">
        <ele>46.90176466753</ele>
        <time>2021-04-05T10:52:03.305Z</time>
      </trkpt>
      <trkpt lat="49.37506" lon="3.37018">
        <ele>46.57919906908</ele>
        <time>2021-04-05T10:52:12.683Z</time>
      </trkpt>
      <trkpt lat="49.37506" lon="3.37018">
        <ele>46.2432688145</ele>
        <time>2021-04-05T10:52:22.061Z</time>
      </trkpt>
      <trkpt lat="49.37534" lon="3.37119">
        <ele>45.72499760687</ele>
        <time>2021-04-05T10:52:31.463Z</time>
      </trkpt>
      <trkpt lat="49.37543" lon="3.37135">
        <ele>45.30794367211</ele>
        <time>2021-04-05T10:52:40.869Z</time>
      </trkpt>
      <trkpt lat="49.37542" lon="3.37158">
        <ele>44.83600749523</ele>
        <time>2021-04-05T10:52:50.280Z</time>
      </trkpt>
      <trkpt lat="49.37555" lon="3.37167">
        <ele>44.49932689808</ele>
        <time>2021-04-05T10:52:59.696Z</time>
      </trkpt>
      <trkpt lat="49.37587" lon="3.37435">
        <ele>43.99822300947</ele>
        <time>2021-04-05T10:53:09.171Z</time>
      </trkpt>
      <trkpt lat="49.37676" lon="3.37393">
        <ele>43.79390109847</ele>
        <time>2021-04-05T10:53:18.678Z</time>
      </trkpt>
      <trkpt lat="49.37732" lon="3.37354">
        <ele>43.65431109437</ele>
        <time>2021-04-05T10:53:28.205Z</time>
      </trkpt>
      <trkpt lat="49.37732" lon="3.37354">
        <ele>43.52461197674</ele>
        <time>2021-04-05T10:53:37.732Z</time>
      </trkpt>
      <trkpt lat="49.37829" lon="3.37278">
        <ele>43.40349829961</ele>
        <time>2021-04-05T10:53:47.295Z</time>
      </trkpt>
      <trkpt lat="49.37893" lon="3.37198">
        <ele>43.44695767176</ele>
        <time>2021-04-05T10:53:56.886Z</time>
      </trkpt>
      <trkpt lat="49.37963" lon="3.37003">
        <ele>43.42239524947</ele>
        <time>2021-04-05T10:54:06.525Z</time>
      </trkpt>
      <trkpt lat="49.3798" lon="3.36954">
        <ele>43.42917168858</ele>
        <time>2021-04-05T10:54:16.176Z</time>
      </trkpt>
      <trkpt lat="49.38013" lon="3.36427">
        <ele>43.36246923659</ele>
        <time>2021-04-05T10:54:25.943Z</time>
      </trkpt>
      <trkpt lat="49.38105" lon="3.3646">
        <ele>43.42651025077</ele>
        <time>2021-04-05T10:54:35.741Z</time>
      </trkpt>
      <trkpt lat="49.38214" lon="3.36483">
        <ele>43.2100066442</ele>
        <time>2021-04-05T10:54:45.576Z</time>
      </trkpt>
      <trkpt lat="49.3823" lon="3.36475">
        <ele>43.15760442149</ele>
        <time>2021-04-05T10:54:55.416Z</time>
      </trkpt>
      <trkpt lat="49.38493" lon="3.3638">
        <ele>43.37732743522</ele>
        <time>2021-04-05T10:55:05.347Z</time>
      </trkpt>
      <trkpt lat="49.38493" lon="3.3638">
        <ele>43.285536435</ele>
        <time>2021-04-05T10:55:15.278Z</time>
      </trkpt>
      <trkpt lat="49.38527" lon="3.36368">
        <ele>43.08624862338</ele>
        <time>2021-04-05T10:55:25.220Z</time>
      </trkpt>
      <trkpt lat="49.38572" lon="3.36573">
        <ele>42.86335400366</ele>
        <time>2021-04-05T10:55:35.209Z</time>
      </trkpt>
      <trkpt lat="49.38725" lon="3.36432">
        <ele>42.86784184509</ele>
        <time>2021-04-05T10:55:45.258Z</time>
      </trkpt>
      <trkpt lat="49.3874" lon="3.36407">
        <ele>42.50829416921</ele>
        <time>2021-04-05T10:55:55.314Z</time>
      </trkpt>
      <trkpt lat="49.38777" lon="3.3631">
        <ele>41.99525868247</ele>
        <time>2021-04-05T10:56:05.395Z</time>
      </trkpt>
      <trkpt lat="49.3879" lon="3.3623">
        <ele>41.54808497392</ele>
        <time>2021-04-05T10:56:15.494Z</time>
      </trkpt>
      <trkpt lat="49.38783" lon="3.36163">
        <ele>41.4549734144</ele>
        <time>2021-04-05T10:56:25.608Z</time>
      </trkpt>
      <trkpt lat="49.38783" lon="3.36163">
        <ele>41.30662933777</ele>
        <time>2021-04-05T10:56:35.722Z</time>
      </trkpt>
      <trkpt lat="49.38778" lon="3.3611">
        <ele>41.38824006495</ele>
        <time>2021-04-05T10:56:45.847Z</time>
      </trkpt>
      <trkpt lat="49.38631" lon="3.35817">
        <ele>41.17160352707</ele>
        <time>2021-04-05T10:56:56.053Z</time>
      </trkpt>
      <trkpt lat="49.38631" lon="3.35817">
        <ele>41.27234377833</ele>
        <time>2021-04-05T10:57:06.259Z</time>
      </trkpt>
      <trkpt lat="49.38623" lon="3.35803">
        <ele>41.4643631765</ele>
        <time>2021-04-05T10:57:16.469Z</time>
      </trkpt>
      <trkpt lat="49.38541" lon="3.35631">
        <ele>41.7663317007</ele>
        <time>2021-04-05T10:57:26.725Z</time>
      </trkpt>
      <trkpt lat="49.38505" lon="3.35575">
        <ele>42.23459370026</ele>
        <time>2021-04-05T10:57:36.998Z</time>
      </trkpt>
      <trkpt lat="49.38416" lon="3.3551">
        <ele>42.58125684514</ele>
        <time>2021-04-05T10:57:47.304Z</time>
      </trkpt>
      <trkpt lat="49.38409" lon="3.35452">
        <ele>43.47757271881</ele>
        <time>2021-04-05T10:57:57.623Z</time>
      </trkpt>
      <trkpt lat="49.38378" lon="3.35371">
        <ele>44.65943617791</ele>
        <time>2021-04-05T10:58:07.963Z</time>
      </trkpt>
      <trkpt lat="49.3835" lon="3.35314">
        <ele>45.51679999202</ele>
        <time>2021-04-05T10:58:18.318Z</time>
      </trkpt>
      <trkpt lat="49.38329" lon="3.35298">
        <ele>46.23167736097</ele>
        <time>2021-04-05T10:58:28.681Z</time>
      </trkpt>
      <trkpt lat="49.38292" lon="3.35248">
        <ele>46.42387600372</ele>
        <time>2021-04-05T10:58:39.060Z</time>
      </trkpt>
      <trkpt lat="49.38264" lon="3.3523">
        <ele>47.03779982957</ele>
        <time>2021-04-05T10:58:49.449Z</time>
      </trkpt>
      <trkpt lat="49.38187" lon="3.35201">
        <ele>47.63313816483</ele>
        <time>2021-04-05T10:58:59.865Z</time>
      </trkpt>
      <trkpt lat="49.38072" lon="3.35131">
        <ele>47.8890214364</ele>
        <time>2021-04-05T10:59:10.322Z</time>
      </trkpt>
      <trkpt lat="49.38012" lon="3.35112">
        <ele>47.95123503909</ele>
        <time>2021-04-05T10:59:20.800Z</time>
      </trkpt>
      <trkpt lat="49.37965" lon="3.35069">
        <ele>48.75814500307</ele>
        <time>2021-04-05T10:59:31.296Z</time>
      </trkpt>
      <trkpt lat="49.37957" lon="3.35053">
        <ele>48.75813367345</ele>
        <time>2021-04-05T10:59:41.796Z</time>
      </trkpt>
      <trkpt lat="49.37957" lon="3.35053">
        <ele>48.37224499447</ele>
        <time>2021-04-05T10:59:52.296Z</time>
      </trkpt>
      <trkpt lat="49.37944" lon="3.35028">
        <ele>47.57528926423</ele>
        <time>2021-04-05T11:00:02.803Z</time>
      </trkpt>
      <trkpt lat="49.37893" lon="3.34813">
        <ele>45.691266662</ele>
        <time>2021-04-05T11:00:13.360Z</time>
      </trkpt>
      <trkpt lat="49.3788" lon="3.34729">
        <ele>45.05765799909</ele>
        <time>2021-04-05T11:00:23.936Z</time>
      </trkpt>
      <trkpt lat="49.37887" lon="3.34496">
        <ele>44.45424113491</ele>
        <time>2021-04-05T11:00:34.563Z</time>
      </trkpt>
      <trkpt lat="49.37851" lon="3.34126">
        <ele>43.40317008292</ele>
        <time>2021-04-05T11:00:45.271Z</time>
      </trkpt>
      <trkpt lat="49.37834" lon="3.33805">
        <ele>43.02327065185</ele>
        <time>2021-04-05T11:00:56.049Z</time>
      </trkpt>
      <trkpt lat="49.37842" lon="3.3369">
        <ele>41.75563566713</ele>
        <time>2021-04-05T11:01:06.852Z</time>
      </trkpt>
      <trkpt lat="49.3786" lon="3.33605">
        <ele>41.097865176</ele>
        <time>2021-04-05T11:01:17.675Z</time>
      </trkpt>
      <trkpt lat="49.3786" lon="3.33605">
        <ele>40.72720005926</ele>
        <time>2021-04-05T11:01:28.498Z</time>
      </trkpt>
      <trkpt lat="49.37876" lon="3.33542">
        <ele>40.7093737359</ele>
        <time>2021-04-05T11:01:39.336Z</time>
      </trkpt>
      <trkpt lat="49.37909" lon="3.3348">
        <ele>40.73130787229</ele>
        <time>2021-04-05T11:01:50.191Z</time>
      </trkpt>
      <trkpt lat="49.37931" lon="3.33411">
        <ele>40.91376386174</ele>
        <time>2021-04-05T11:02:01.063Z</time>
      </trkpt>
      <trkpt lat="49.37964" lon="3.33222">
        <ele>41.07227068865</ele>
        <time>2021-04-05T11:02:11.978Z</time>
      </trkpt>
      <trkpt lat="49.37988" lon="3.33163">
        <ele>41.2465892485</ele>
        <time>2021-04-05T11:02:22.908Z</time>
      </trkpt>
      <trkpt lat="49.38007" lon="3.33131">
        <ele>41.5028211437</ele>
        <time>2021-04-05T11:02:33.847Z</time>
      </trkpt>
      <trkpt lat="49.3803" lon="3.33111">
        <ele>41.91962523077</ele>
        <time>2021-04-05T11:02:44.795Z</time>
      </trkpt>
      <trkpt lat="49.38136" lon="3.33075">
        <ele>42.27376385751</ele>
        <time>2021-04-05T11:02:55.779Z</time>
      </trkpt>
      <trkpt lat="49.38155" lon="3.33065">
        <ele>42.52087117348</ele>
        <time>2021-04-05T11:03:06.770Z</time>
      </trkpt>
      <trkpt lat="49.38173" lon="3.33041">
        <ele>42.64331467355</ele>
        <time>2021-04-05T11:03:17.769Z</time>
      </trkpt>
      <trkpt lat="49.38149" lon="3.33037">
        <ele>42.93520347255</ele>
        <time>2021-04-05T11:03:28.776Z</time>
      </trkpt>
      <trkpt lat="49.38201" lon="3.33001">
        <ele>42.85649058885</ele>
        <time>2021-04-05T11:03:39.802Z</time>
      </trkpt>
      <trkpt lat="49.38214" lon="3.32992">
        <ele>42.77817978466</ele>
        <time>2021-04-05T11:03:50.833Z</time>
      </trkpt>
      <trkpt lat="49.38235" lon="3.32993">
        <ele>42.668107764</ele>
        <time>2021-04-05T11:04:01.871Z</time>
      </trkpt>
      <trkpt lat="49.38245" lon="3.32994">
        <ele>42.54353610949</ele>
        <time>2021-04-05T11:04:12.912Z</time>
      </trkpt>
      <trkpt lat="49.38306" lon="3.32992">
        <ele>42.29234685403</ele>
        <time>2021-04-05T11:04:23.974Z</time>
      </trkpt>
      <trkpt lat="49.38327" lon="3.32988">
        <ele>42.09574838578</ele>
        <time>2021-04-05T11:04:35.043Z</time>
      </trkpt>
      <trkpt lat="49.38345" lon="3.32983">
        <ele>41.93519666074</ele>
        <time>2021-04-05T11:04:46.118Z</time>
      </trkpt>
      <trkpt lat="49.38371" lon="3.32977">
        <ele>41.88000283774</ele>
        <time>2021-04-05T11:04:57.202Z</time>
      </trkpt>
      <trkpt lat="49.38389" lon="3.32977">
        <ele>41.94503214016</ele>
        <time>2021-04-05T11:05:08.292Z</time>
      </trkpt>
      <trkpt lat="49.38389" lon="3.32977">
        <ele>41.97289802617</ele>
        <time>2021-04-05T11:05:19.382Z</time>
      </trkpt>
      <trkpt lat="49.38419" lon="3.32977">
        <ele>42.2104104987</ele>
        <time>2021-04-05T11:05:30.482Z</time>
      </trkpt>
      <trkpt lat="49.38426" lon="3.32983">
        <ele>42.28584170137</ele>
        <time>2021-04-05T11:05:41.585Z</time>
      </trkpt>
      <trkpt lat="49.3844" lon="3.32998">
        <ele>42.38474218157</ele>
        <time>2021-04-05T11:05:52.693Z</time>
      </trkpt>
      <trkpt lat="49.38451" lon="3.33018">
        <ele>42.43921358166</ele>
        <time>2021-04-05T11:06:03.807Z</time>
      </trkpt>
      <trkpt lat="49.38451" lon="3.33018">
        <ele>42.59879526027</ele>
        <time>2021-04-05T11:06:14.921Z</time>
      </trkpt>
      <trkpt lat="49.38515" lon="3.33128">
        <ele>42.67318096373</ele>
        <time>2021-04-05T11:06:26.067Z</time>
      </trkpt>
      <trkpt lat="49.3852" lon="3.33134">
        <ele>42.95627660165</ele>
        <time>2021-04-05T11:06:37.215Z</time>
      </trkpt>
      <trkpt lat="49.38563" lon="3.33211">
        <ele>43.41855502538</ele>
        <time>2021-04-05T11:06:48.385Z</time>
      </trkpt>
      <trkpt lat="49.38592" lon="3.33255">
        <ele>43.60859655286</ele>
        <time>2021-04-05T11:06:59.569Z</time>
      </trkpt>
      <trkpt lat="49.38599" lon="3.33266">
        <ele>43.74664522009</ele>
        <time>2021-04-05T11:07:10.756Z</time>
      </trkpt>
      <trkpt lat="49.38613" lon="3.3329">
        <ele>43.79852854388</ele>
        <time>2021-04-05T11:07:21.950Z</time>
      </trkpt>
      <trkpt lat="49.38626" lon="3.33316">
        <ele>43.79151129151</ele>
        <time>2021-04-05T11:07:33.151Z</time>
      </trkpt>
      <trkpt lat="49.3865" lon="3.33355">
        <ele>43.62965397459</ele>
        <time>2021-04-05T11:07:44.364Z</time>
      </trkpt>
      <trkpt lat="49.38776" lon="3.33544">
        <ele>42.95629860765</ele>
        <time>2021-04-05T11:07:55.636Z</time>
      </trkpt>
      <trkpt lat="49.38887" lon="3.33713">
        <ele>43.0552471637</ele>
        <time>2021-04-05T11:08:06.960Z</time>
      </trkpt>
      <trkpt lat="49.38919" lon="3.33763">
        <ele>43.06934995811</ele>
        <time>2021-04-05T11:08:18.299Z</time>
      </trkpt>
      <trkpt lat="49.38919" lon="3.33763">
        <ele>43.00124759683</ele>
        <time>2021-04-05T11:08:29.638Z</time>
      </trkpt>
      <trkpt lat="49.38972" lon="3.33844">
        <ele>42.89717983815</ele>
        <time>2021-04-05T11:08:41.002Z</time>
      </trkpt>
      <trkpt lat="49.38986" lon="3.33865">
        <ele>42.94353862382</ele>
        <time>2021-04-05T11:08:52.373Z</time>
      </trkpt>
      <trkpt lat="49.39019" lon="3.33915">
        <ele>43.11499429755</ele>
        <time>2021-04-05T11:09:03.759Z</time>
      </trkpt>
      <trkpt lat="49.3913" lon="3.34091">
        <ele>43.25811706859</ele>
        <time>2021-04-05T11:09:15.199Z</time>
      </trkpt>
      <trkpt lat="49.39136" lon="3.34099">
        <ele>43.16994108699</ele>
        <time>2021-04-05T11:09:26.641Z</time>
      </trkpt>
      <trkpt lat="49.39222" lon="3.34233">
        <ele>42.82957176917</ele>
        <time>2021-04-05T11:09:38.124Z</time>
      </trkpt>
      <trkpt lat="49.39233" lon="3.34213">
        <ele>42.64263471482</ele>
        <time>2021-04-05T11:09:49.613Z</time>
      </trkpt>
      <trkpt lat="49.39242" lon="3.34188">
        <ele>42.49677067741</ele>
        <time>2021-04-05T11:10:01.108Z</time>
      </trkpt>
    </trkseg>
  </trk>
</gpx>